createdAt,value
2019-03-18T00:02:02.530Z,20.32
2019-03-18T00:04:35.399Z,30.68
2019-03-18T00:07:09.564Z,27.75
2019-03-18T00:09:43.015Z,23.98
2019-03-18T00:12:16.095Z,28.47
2019-03-18T00:15:00.460Z,28.62
2019-03-18T00:17:23.545Z,25.40
2019-03-18T00:19:56.111Z,17.95
2019-03-18T00:22:29.334Z,15.35
2019-03-18T00:25:02.252Z,22.32
2019-03-18T00:27:35.707Z,22.95
2019-03-18T00:30:13.703Z,20.52
2019-03-18T00:32:46.902Z,24.30
2019-03-18T00:35:19.985Z,22.65
2019-03-18T00:37:53.462Z,26.97
2019-03-18T00:40:27.051Z,17.85
2019-03-18T00:43:00.549Z,22.93
2019-03-18T00:45:33.500Z,22.87
2019-03-18T00:48:07.105Z,22.35
2019-03-18T00:50:40.777Z,16.57
2019-03-18T00:53:13.607Z,18.82
2019-03-18T00:55:46.619Z,16.60
2019-03-18T00:58:20.467Z,19.00
2019-03-18T01:00:53.477Z,12.98
2019-03-18T01:03:27.323Z,22.75
2019-03-18T01:06:00.280Z,16.55
2019-03-18T01:08:33.554Z,20.05
2019-03-18T01:11:06.849Z,22.98
2019-03-18T01:13:40.089Z,20.27
2019-03-18T01:16:13.131Z,20.15
2019-03-18T01:18:46.334Z,22.67
2019-03-18T01:21:19.774Z,21.57
2019-03-18T01:23:53.991Z,23.20
2019-03-18T01:26:27.063Z,20.52
2019-03-18T01:29:00.553Z,21.57
2019-03-18T01:31:35.155Z,21.52
2019-03-18T01:34:08.586Z,20.32
2019-03-18T01:36:41.532Z,22.60
2019-03-18T01:39:15.304Z,26.68
2019-03-18T01:41:48.258Z,21.02
2019-03-18T01:44:21.450Z,15.15
2019-03-18T01:46:59.200Z,22.85
2019-03-18T01:49:32.893Z,15.35
2019-03-18T01:52:06.179Z,21.82
2019-03-18T01:54:39.266Z,21.93
2019-03-18T01:57:12.359Z,21.37
2019-03-18T01:59:46.066Z,20.80
2019-03-18T02:02:19.051Z,22.17
2019-03-18T02:04:52.570Z,22.58
2019-03-18T02:07:25.512Z,25.27
2019-03-18T02:10:02.790Z,19.60
2019-03-18T02:12:35.577Z,21.80
2019-03-18T02:15:10.966Z,19.70
2019-03-18T02:17:43.857Z,23.00
2019-03-18T02:20:19.629Z,21.30
2019-03-18T02:22:52.794Z,26.52
2019-03-18T02:25:25.850Z,27.58
2019-03-18T02:28:03.456Z,22.75
2019-03-18T02:30:38.367Z,23.32
2019-03-18T02:33:12.085Z,22.30
2019-03-18T02:35:49.203Z,17.45
2019-03-18T02:38:21.829Z,26.70
2019-03-18T02:40:55.229Z,22.25
2019-03-18T02:43:28.288Z,18.23
2019-03-18T02:46:09.956Z,22.45
2019-03-18T02:48:35.908Z,23.27
2019-03-18T02:51:09.226Z,15.43
2019-03-18T02:53:42.217Z,19.17
2019-03-18T02:56:15.622Z,19.92
2019-03-18T02:58:49.014Z,21.82
2019-03-18T03:01:22.162Z,19.77
2019-03-18T03:03:55.660Z,22.67
2019-03-18T03:06:28.859Z,22.67
2019-03-18T03:09:01.927Z,26.62
2019-03-18T03:11:35.250Z,24.50
2019-03-18T03:14:09.044Z,26.62
2019-03-18T03:16:42.157Z,20.57
2019-03-18T03:19:15.602Z,16.67
2019-03-18T03:21:48.458Z,13.30
2019-03-18T03:24:21.321Z,24.25
2019-03-18T03:26:54.397Z,18.55
2019-03-18T03:29:27.223Z,24.35
2019-03-18T03:32:00.050Z,25.80
2019-03-18T03:34:33.171Z,23.85
2019-03-18T03:37:06.239Z,25.95
2019-03-18T03:39:39.676Z,25.97
2019-03-18T03:42:12.424Z,23.70
2019-03-18T03:44:45.650Z,25.15
2019-03-18T03:47:18.859Z,21.68
2019-03-18T03:49:52.751Z,26.45
2019-03-18T03:52:25.861Z,23.40
2019-03-18T03:54:59.457Z,22.40
2019-03-18T03:57:33.371Z,26.25
2019-03-18T04:00:17.594Z,22.93
2019-03-18T04:02:50.854Z,18.85
2019-03-18T04:05:23.843Z,18.02
2019-03-18T04:07:57.080Z,27.67
2019-03-18T04:10:30.082Z,26.12
2019-03-18T04:13:03.120Z,22.70
2019-03-18T04:15:36.888Z,29.37
2019-03-18T04:18:14.718Z,31.12
2019-03-18T04:20:47.846Z,33.13
2019-03-18T04:23:20.729Z,26.45
2019-03-18T04:25:54.052Z,26.00
2019-03-18T04:28:27.489Z,29.00
2019-03-18T04:31:00.549Z,25.57
2019-03-18T04:33:33.464Z,28.05
2019-03-18T04:36:06.605Z,30.10
2019-03-18T04:38:40.345Z,26.50
2019-03-18T04:41:13.307Z,28.62
2019-03-18T04:43:47.640Z,34.35
2019-03-18T04:46:20.527Z,29.50
2019-03-18T04:48:54.438Z,38.30
2019-03-18T04:51:28.607Z,33.95
2019-03-18T04:54:04.277Z,31.27
2019-03-18T04:56:37.585Z,41.08
2019-03-18T04:59:10.329Z,41.95
2019-03-18T05:01:43.544Z,40.03
2019-03-18T05:04:16.394Z,43.02
2019-03-18T05:06:50.605Z,44.23
2019-03-18T05:09:24.206Z,43.68
2019-03-18T05:11:57.699Z,43.15
2019-03-18T05:14:33.792Z,36.83
2019-03-18T05:17:07.156Z,38.10
2019-03-18T05:19:40.108Z,45.90
2019-03-18T05:22:13.233Z,45.15
2019-03-18T05:24:46.333Z,41.05
2019-03-18T05:27:19.471Z,47.45
2019-03-18T05:29:53.886Z,46.73
2019-03-18T05:32:27.825Z,48.60
2019-03-18T05:35:01.084Z,47.78
2019-03-18T05:37:34.082Z,47.67
2019-03-18T05:40:07.768Z,51.28
2019-03-18T05:42:41.898Z,45.00
2019-03-18T05:45:14.991Z,48.92
2019-03-18T05:47:47.936Z,48.20
2019-03-18T05:50:20.909Z,48.15
2019-03-18T05:52:56.923Z,50.63
2019-03-18T05:55:29.663Z,54.18
2019-03-18T05:58:02.968Z,55.43
2019-03-18T06:00:35.787Z,59.55
2019-03-18T06:03:08.768Z,57.65
2019-03-18T06:05:41.595Z,58.75
2019-03-18T06:08:15.100Z,63.20
2019-03-18T06:10:47.909Z,62.75
2019-03-18T06:13:23.408Z,57.60
2019-03-18T06:15:56.243Z,56.73
2019-03-18T06:18:30.884Z,60.28
2019-03-18T06:21:03.571Z,59.27
2019-03-18T06:23:37.199Z,60.48
2019-03-18T06:26:09.918Z,61.53
2019-03-18T06:28:43.326Z,61.60
2019-03-18T06:31:15.968Z,58.98
2019-03-18T06:33:49.122Z,67.22
2019-03-18T06:36:21.784Z,54.13
2019-03-18T06:38:54.406Z,62.65
2019-03-18T06:41:28.743Z,57.43
2019-03-18T06:44:02.032Z,63.23
2019-03-18T06:46:34.869Z,52.30
2019-03-18T06:49:08.594Z,54.25
2019-03-18T06:51:41.505Z,54.10
2019-03-18T06:54:15.864Z,51.85
2019-03-18T06:56:48.808Z,57.67
2019-03-18T06:59:21.824Z,61.08
2019-03-18T07:01:54.839Z,55.33
2019-03-18T07:04:31.852Z,62.05
2019-03-18T07:07:05.525Z,62.75
2019-03-18T07:09:39.218Z,57.05
2019-03-18T07:12:15.682Z,52.85
2019-03-18T07:14:50.102Z,55.75
2019-03-18T07:17:25.735Z,59.00
2019-03-18T07:19:59.069Z,51.18
2019-03-18T07:22:31.941Z,34.88
2019-03-18T07:25:05.156Z,41.58
2019-03-18T07:27:38.360Z,48.13
2019-03-18T07:30:15.522Z,44.40
2019-03-18T07:32:48.244Z,52.70
2019-03-18T07:35:21.267Z,57.62
2019-03-18T07:37:54.444Z,55.08
2019-03-18T07:40:27.199Z,28.47
2019-03-18T07:43:00.221Z,46.75
2019-03-18T07:45:33.522Z,33.65
2019-03-18T07:48:07.088Z,38.53
2019-03-18T07:50:40.537Z,52.48
2019-03-18T07:53:13.891Z,51.88
2019-03-18T07:55:46.816Z,49.55
2019-03-18T07:58:22.427Z,50.28
2019-03-18T08:00:54.926Z,41.08
2019-03-18T08:03:28.716Z,40.05
2019-03-18T08:06:02.305Z,45.98
2019-03-18T08:08:35.539Z,40.45
2019-03-18T08:11:09.694Z,43.70
2019-03-18T08:13:42.657Z,41.63
2019-03-18T08:16:16.261Z,43.38
2019-03-18T08:18:51.954Z,49.95
2019-03-18T08:21:23.575Z,50.88
2019-03-18T08:23:57.078Z,32.15
2019-03-18T08:26:30.560Z,41.08
2019-03-18T08:29:03.485Z,38.23
2019-03-18T08:31:37.672Z,32.53
2019-03-18T08:34:10.357Z,40.12
2019-03-18T08:36:43.840Z,45.85
2019-03-18T08:39:16.705Z,36.68
2019-03-18T08:41:50.025Z,34.15
2019-03-18T08:44:22.712Z,36.08
2019-03-18T08:46:55.842Z,30.75
2019-03-18T08:49:28.368Z,35.98
2019-03-18T08:52:01.564Z,32.17
2019-03-18T08:54:34.605Z,35.95
2019-03-18T08:57:10.933Z,36.58
2019-03-18T08:59:44.449Z,43.90
2019-03-18T09:02:17.719Z,41.53
2019-03-18T09:04:51.650Z,55.75
2019-03-18T09:07:27.799Z,65.67
2019-03-18T09:10:01.157Z,61.90
2019-03-18T09:12:35.457Z,50.52
2019-03-18T09:15:14.549Z,57.80
2019-03-18T09:17:47.654Z,47.62
2019-03-18T09:20:22.536Z,48.20
2019-03-18T09:22:57.150Z,53.23
2019-03-18T09:25:29.690Z,42.20
2019-03-18T09:28:04.917Z,57.67
2019-03-18T09:30:40.756Z,50.70
2019-03-18T09:33:13.962Z,49.65
2019-03-18T09:35:46.869Z,56.55
2019-03-18T09:38:20.148Z,61.65
2019-03-18T09:40:53.436Z,59.95
2019-03-18T09:43:26.825Z,67.47
2019-03-18T09:45:59.996Z,74.45
2019-03-18T09:48:35.656Z,69.80
2019-03-18T09:51:09.773Z,77.65
2019-03-18T09:53:43.137Z,79.80
2019-03-18T09:56:17.154Z,77.95
2019-03-18T09:58:50.022Z,84.58
2019-03-18T10:01:26.600Z,84.92
2019-03-18T10:03:59.951Z,86.95
2019-03-18T10:06:32.776Z,81.60
2019-03-18T10:09:08.222Z,84.85
2019-03-18T10:11:41.582Z,87.78
2019-03-18T10:14:14.726Z,85.77
2019-03-18T10:16:52.990Z,75.65
2019-03-18T10:19:32.994Z,65.25
2019-03-18T10:21:56.803Z,57.85
2019-03-18T10:24:30.008Z,77.50
2019-03-18T10:27:02.921Z,59.15
2019-03-18T10:29:36.304Z,67.35
2019-03-18T10:32:09.247Z,50.60
2019-03-18T10:34:42.703Z,56.55
2019-03-18T10:37:17.050Z,44.40
2019-03-18T10:39:50.139Z,47.95
2019-03-18T10:42:23.132Z,48.65
2019-03-18T10:44:57.065Z,47.67
2019-03-18T10:47:30.097Z,47.83
2019-03-18T10:50:03.002Z,51.50
2019-03-18T10:52:36.400Z,58.08
2019-03-18T10:55:10.799Z,54.45
2019-03-18T10:57:44.071Z,47.60
2019-03-18T11:00:17.698Z,40.15
2019-03-18T11:02:50.998Z,58.65
2019-03-18T11:05:26.705Z,63.73
2019-03-18T11:08:00.618Z,53.80
2019-03-18T11:10:34.898Z,57.62
2019-03-18T11:13:08.294Z,54.23
2019-03-18T11:15:41.420Z,53.98
2019-03-18T11:18:14.992Z,54.10
2019-03-18T11:20:48.882Z,55.55
2019-03-18T11:23:22.734Z,50.65
2019-03-18T11:25:56.093Z,63.78
2019-03-18T11:28:29.918Z,72.22
2019-03-18T11:31:02.824Z,71.30
2019-03-18T11:33:36.136Z,71.57
2019-03-18T11:36:09.621Z,75.45
2019-03-18T11:38:42.772Z,62.60
2019-03-18T11:41:17.611Z,67.20
2019-03-18T11:43:51.187Z,71.40
2019-03-18T11:46:27.400Z,70.90
2019-03-18T11:49:01.320Z,71.55
2019-03-18T11:51:34.454Z,71.85
2019-03-18T11:54:08.701Z,73.12
2019-03-18T11:59:41.695Z,77.40
2019-03-18T11:59:47.046Z,83.60
2019-03-18T12:02:27.749Z,86.28
2019-03-18T12:04:57.853Z,88.62
2019-03-18T12:07:32.066Z,73.30
2019-03-18T12:10:06.125Z,74.62
2019-03-18T12:12:39.212Z,69.17
2019-03-18T12:15:14.277Z,78.17
2019-03-18T12:17:47.539Z,79.47
2019-03-18T12:20:24.683Z,81.37
2019-03-18T12:22:54.928Z,76.87
2019-03-18T12:25:27.848Z,86.22
2019-03-18T12:28:05.012Z,71.28
2019-03-18T12:30:37.350Z,76.95
2019-03-18T12:33:10.453Z,80.80
2019-03-18T12:35:43.531Z,78.42
2019-03-18T12:38:16.372Z,81.72
2019-03-18T12:40:49.469Z,87.37
2019-03-18T12:43:22.436Z,78.00
2019-03-18T12:45:55.942Z,85.83
2019-03-18T12:48:30.673Z,89.80
2019-03-18T12:51:05.752Z,88.75
2019-03-18T12:53:38.727Z,90.50
2019-03-18T12:56:13.933Z,100.02
2019-03-18T12:58:47.070Z,90.60
2019-03-18T13:01:21.413Z,90.03
2019-03-18T13:03:54.787Z,91.87
2019-03-18T13:06:27.533Z,92.10
2019-03-18T13:09:02.431Z,95.25
2019-03-18T13:11:36.118Z,85.57
2019-03-18T13:14:12.550Z,89.72
2019-03-18T13:16:49.324Z,93.12
2019-03-18T13:19:22.717Z,89.32
2019-03-18T13:22:00.598Z,89.15
2019-03-18T13:24:34.174Z,88.85
2019-03-18T13:27:08.936Z,90.72
2019-03-18T13:29:41.909Z,100.02
2019-03-18T13:32:17.227Z,100.33
2019-03-18T13:34:50.199Z,97.15
2019-03-18T13:37:26.038Z,94.52
2019-03-18T13:40:00.431Z,83.22
2019-03-18T13:42:34.471Z,92.35
2019-03-18T13:45:38.881Z,95.25
2019-03-18T13:48:11.271Z,101.85
2019-03-18T13:50:45.221Z,93.30
2019-03-18T13:53:19.740Z,92.80
2019-03-18T13:55:52.545Z,94.50
2019-03-18T13:58:25.761Z,95.25
2019-03-18T14:00:58.894Z,104.97
2019-03-18T14:03:32.475Z,109.95
2019-03-18T14:06:05.774Z,102.78
2019-03-18T14:08:39.626Z,104.47
2019-03-18T14:11:16.196Z,100.12
2019-03-18T14:13:51.708Z,110.32
2019-03-18T14:16:27.143Z,114.75
2019-03-18T14:19:00.224Z,96.50
2019-03-18T14:21:33.712Z,103.97
2019-03-18T14:24:07.330Z,109.65
2019-03-18T14:26:40.364Z,105.95
2019-03-18T14:29:15.478Z,104.53
2019-03-18T14:31:48.837Z,111.97
2019-03-18T14:34:22.048Z,113.95
2019-03-18T14:36:54.697Z,106.58
2019-03-18T14:39:27.490Z,101.95
2019-03-18T14:42:04.528Z,112.12
2019-03-18T14:44:38.694Z,117.80
2019-03-18T14:47:11.553Z,112.10
2019-03-18T14:49:46.359Z,106.75
2019-03-18T14:52:18.656Z,115.22
2019-03-18T14:54:51.590Z,105.30
2019-03-18T14:57:27.476Z,103.25
2019-03-18T15:00:04.511Z,102.95
2019-03-18T15:02:40.299Z,103.45
2019-03-18T15:05:15.985Z,115.32
2019-03-18T15:07:50.197Z,107.43
2019-03-18T15:10:24.545Z,108.52
2019-03-18T15:12:58.392Z,116.40
2019-03-18T15:15:33.751Z,99.83
2019-03-18T15:18:07.051Z,108.95
2019-03-18T15:20:41.264Z,118.53
2019-03-18T15:23:14.437Z,118.02
2019-03-18T15:25:48.066Z,116.28
2019-03-18T15:28:23.219Z,120.35
2019-03-18T15:30:56.732Z,112.00
2019-03-18T15:33:30.905Z,120.33
2019-03-18T15:36:04.395Z,127.62
2019-03-18T15:38:37.615Z,126.40
2019-03-18T15:41:10.842Z,122.82
2019-03-18T15:43:43.811Z,127.87
2019-03-18T15:46:18.318Z,120.10
2019-03-18T15:48:51.362Z,124.80
2019-03-18T15:51:24.946Z,113.83
2019-03-18T15:53:57.794Z,119.30
2019-03-18T15:56:32.191Z,118.93
2019-03-18T15:59:09.227Z,104.78
2019-03-18T16:01:44.814Z,112.45
2019-03-18T16:04:18.414Z,121.92
2019-03-18T16:06:52.451Z,126.95
2019-03-18T16:09:25.545Z,125.07
2019-03-18T16:11:59.385Z,137.40
2019-03-18T16:14:32.611Z,139.50
2019-03-18T16:17:05.564Z,143.65
2019-03-18T16:19:38.725Z,146.98
2019-03-18T16:22:23.025Z,126.90
2019-03-18T16:24:46.391Z,74.05
2019-03-18T16:27:22.577Z,117.65
2019-03-18T16:29:56.185Z,145.28
2019-03-18T16:32:29.423Z,157.80
2019-03-18T16:35:02.669Z,151.00
2019-03-18T16:37:36.236Z,138.52
2019-03-18T16:40:11.258Z,124.82
2019-03-18T16:42:46.295Z,118.85
2019-03-18T16:45:19.694Z,124.95
2019-03-18T16:47:56.202Z,117.03
2019-03-18T16:50:33.985Z,106.27
2019-03-18T16:53:07.731Z,126.82
2019-03-18T16:55:42.649Z,106.22
2019-03-18T16:58:16.594Z,108.35
2019-03-18T17:00:49.473Z,104.70
2019-03-18T17:03:26.245Z,99.85
2019-03-18T17:05:59.345Z,95.97
2019-03-18T17:08:32.484Z,102.87
2019-03-18T17:11:08.007Z,112.32
2019-03-18T17:13:42.215Z,124.82
2019-03-18T17:16:15.074Z,110.85
2019-03-18T17:18:48.345Z,129.90
2019-03-18T17:21:22.331Z,119.05
2019-03-18T17:23:55.723Z,103.78
2019-03-18T17:26:30.195Z,110.83
2019-03-18T17:29:03.947Z,123.45
2019-03-18T17:31:36.693Z,142.45
2019-03-18T17:34:10.540Z,138.18
2019-03-18T17:36:43.279Z,150.07
2019-03-18T17:39:16.679Z,133.05
2019-03-18T17:41:49.527Z,143.30
2019-03-18T17:44:22.959Z,158.60
2019-03-18T17:46:55.949Z,157.40
2019-03-18T17:49:29.305Z,155.97
2019-03-18T17:52:02.297Z,153.38
2019-03-18T17:54:38.284Z,161.18
2019-03-18T17:57:11.398Z,147.25
2019-03-18T17:59:45.430Z,151.27
2019-03-18T18:02:18.619Z,152.70
2019-03-18T18:05:02.795Z,160.80
2019-03-18T18:07:31.221Z,155.75
2019-03-18T18:10:04.440Z,168.68
2019-03-18T18:12:37.327Z,176.35
2019-03-18T18:15:15.034Z,175.80
2019-03-18T18:17:48.130Z,174.95
2019-03-18T18:20:21.042Z,179.50
2019-03-18T18:22:54.136Z,194.17
2019-03-18T18:25:26.901Z,185.80
2019-03-18T18:27:59.823Z,202.05
2019-03-18T18:30:32.922Z,181.90
2019-03-18T18:33:07.938Z,199.27
2019-03-18T18:35:40.958Z,194.60
2019-03-18T18:38:14.333Z,208.32
2019-03-18T18:40:49.496Z,189.07
2019-03-18T18:43:25.469Z,193.20
2019-03-18T18:45:58.237Z,190.12
2019-03-18T18:48:31.955Z,213.28
2019-03-18T18:51:04.610Z,190.50
2019-03-18T18:53:38.020Z,200.80
2019-03-18T18:56:10.601Z,199.53
2019-03-18T18:58:44.135Z,213.32
2019-03-18T19:01:16.933Z,191.15
2019-03-18T19:03:49.868Z,194.50
2019-03-18T19:06:23.063Z,195.72
2019-03-18T19:08:56.651Z,198.90
2019-03-18T19:11:30.458Z,200.15
2019-03-18T19:14:03.384Z,185.57
2019-03-18T19:16:36.534Z,189.22
2019-03-18T19:19:10.749Z,187.72
2019-03-18T19:21:43.806Z,194.80
2019-03-18T19:24:16.553Z,197.02
2019-03-18T19:26:49.719Z,204.35
2019-03-18T19:29:22.557Z,201.67
2019-03-18T19:31:55.523Z,220.95
2019-03-18T19:34:28.735Z,209.15
2019-03-18T19:37:01.528Z,219.97
2019-03-18T19:39:34.962Z,203.47
2019-03-18T19:42:08.039Z,195.12
2019-03-18T19:44:41.314Z,209.10
2019-03-18T19:47:14.689Z,202.53
2019-03-18T19:49:47.739Z,198.07
2019-03-18T19:52:20.718Z,181.02
2019-03-18T19:54:54.735Z,197.87
2019-03-18T19:57:28.481Z,184.00
2019-03-18T20:00:01.481Z,186.90
2019-03-18T20:02:35.910Z,175.00
2019-03-18T20:05:14.922Z,188.68
2019-03-18T20:07:44.162Z,179.65
2019-03-18T20:10:18.515Z,154.15
2019-03-18T20:12:51.816Z,145.68
2019-03-18T20:15:24.774Z,150.93
2019-03-18T20:17:58.029Z,148.50
2019-03-18T20:20:30.959Z,149.77
2019-03-18T20:23:04.014Z,150.47
2019-03-18T20:25:37.263Z,140.50
2019-03-18T20:28:10.265Z,144.32
2019-03-18T20:30:43.203Z,143.13
2019-03-18T20:33:16.419Z,147.02
2019-03-18T20:35:49.561Z,141.55
2019-03-18T20:38:22.244Z,148.50
2019-03-18T20:40:55.214Z,141.62
2019-03-18T20:43:30.075Z,148.87
2019-03-18T20:46:10.273Z,144.90
2019-03-18T20:48:44.130Z,151.15
2019-03-18T20:51:18.189Z,138.95
2019-03-18T20:53:51.990Z,149.85
2019-03-18T20:56:25.360Z,144.37
2019-03-18T20:58:58.918Z,141.05
2019-03-18T21:01:33.511Z,145.22
2019-03-18T21:04:07.219Z,142.70
2019-03-18T21:06:40.372Z,153.05
2019-03-18T21:09:13.891Z,151.20
2019-03-18T21:11:46.846Z,135.85
2019-03-18T21:14:19.800Z,133.95
2019-03-18T21:16:52.775Z,148.78
2019-03-18T21:19:25.787Z,136.30
2019-03-18T21:21:58.993Z,136.25
2019-03-18T21:24:44.077Z,145.60
2019-03-18T21:27:17.795Z,142.32
2019-03-18T21:29:50.604Z,150.50
2019-03-18T21:32:23.355Z,153.10
2019-03-18T21:34:57.120Z,163.12
2019-03-18T21:37:30.088Z,133.55
2019-03-18T21:40:03.170Z,154.25
2019-03-18T21:42:36.127Z,149.62
2019-03-18T21:45:26.058Z,147.25
2019-03-18T21:47:58.792Z,163.47
2019-03-18T21:50:32.131Z,176.85
2019-03-18T21:53:05.128Z,170.00
2019-03-18T21:55:39.037Z,184.30
2019-03-18T21:58:12.108Z,194.45
2019-03-18T22:00:45.757Z,183.45
2019-03-18T22:03:18.411Z,187.15
2019-03-18T22:05:51.323Z,183.30
2019-03-18T22:08:24.237Z,194.87
2019-03-18T22:10:57.418Z,181.47
2019-03-18T22:13:30.321Z,203.52
2019-03-18T22:16:03.345Z,201.85
2019-03-18T22:18:35.980Z,203.80
2019-03-18T22:21:09.112Z,210.85
2019-03-18T22:23:41.883Z,225.40
2019-03-18T22:26:15.384Z,228.30
2019-03-18T22:28:49.256Z,211.82
2019-03-18T22:31:23.827Z,214.68
2019-03-18T22:33:56.894Z,230.20
2019-03-18T22:36:30.724Z,240.70
2019-03-18T22:39:03.694Z,257.05
2019-03-18T22:41:37.172Z,229.68
2019-03-18T22:44:10.336Z,241.65
2019-03-18T22:46:43.336Z,246.53
2019-03-18T22:49:16.486Z,239.70
2019-03-18T22:51:49.763Z,252.20
2019-03-18T22:54:23.084Z,250.10
2019-03-18T22:56:56.315Z,273.02
2019-03-18T22:59:29.899Z,252.93
2019-03-18T23:02:03.414Z,239.65
2019-03-18T23:04:36.691Z,262.63
2019-03-18T23:07:10.266Z,272.93
2019-03-18T23:09:43.175Z,270.33
2019-03-18T23:12:16.146Z,260.17
2019-03-18T23:14:49.084Z,266.02
2019-03-18T23:17:22.204Z,271.27
2019-03-18T23:19:55.057Z,268.05
2019-03-18T23:22:28.287Z,270.35
2019-03-18T23:25:06.957Z,279.00
2019-03-18T23:27:35.982Z,289.12
2019-03-18T23:30:11.359Z,279.43
2019-03-18T23:32:44.287Z,284.50
2019-03-18T23:35:17.381Z,308.00
2019-03-18T23:37:50.266Z,285.63
2019-03-18T23:40:23.514Z,285.85
2019-03-18T23:42:56.471Z,296.40
2019-03-18T23:45:33.382Z,291.17
2019-03-18T23:48:07.256Z,313.52
2019-03-18T23:50:40.487Z,313.68
2019-03-18T23:53:13.797Z,308.77
2019-03-18T23:55:46.843Z,332.73
2019-03-18T23:58:20.109Z,330.90
